Time;durP1;ratioP1;P1;durP2;ratioP2;P2;SDS_P1;SDS_P2;PMS_P1;PMS_P2;Temp;Humidity;BMP_temperature;BMP_pressure;BME280_temperature;BME280_humidity;BME280_pressure;Samples;Min_cycle;Max_cycle;Signal;HPM_P1;HPM_P2
2021/05/17 00:00:01;;;;;;;;;;;21.70;56.60;;;;;;4711004;30;20431;-58
2021/05/17 00:02:28;;;;;;;;;;;21.70;56.70;;;;;;4709804;30;19931;-58
2021/05/17 00:05:00;;;;;;;;;;;21.70;56.60;;;;;;4703599;30;19941;-58
2021/05/17 00:07:26;;;;;;;;;;;21.70;56.60;;;;;;4705871;30;19931;-59
2021/05/17 00:09:53;;;;;;;;;;;21.70;56.60;;;;;;4704505;30;19931;-60
2021/05/17 00:12:20;;;;;;;;;;;21.70;56.50;;;;;;4708956;30;20587;-58
2021/05/17 00:14:47;;;;;;;;;;;21.70;56.50;;;;;;4704687;30;19931;-58
2021/05/17 00:17:14;;;;;;;;;;;21.70;56.60;;;;;;4706814;30;20473;-60
2021/05/17 00:19:40;;;;;;;;;;;21.70;56.60;;;;;;4704597;30;19939;-59
2021/05/17 00:22:08;;;;;;;;;;;21.60;56.50;;;;;;4705719;30;19935;-58
2021/05/17 00:24:34;;;;;;;;;;;21.60;56.50;;;;;;4710276;30;19930;-58
2021/05/17 00:27:01;;;;;;;;;;;21.60;56.60;;;;;;4708503;30;19946;-59
2021/05/17 00:29:29;;;;;;;;;;;21.60;56.50;;;;;;4712254;30;19934;-58
2021/05/17 00:31:56;;;;;;;;;;;21.60;56.40;;;;;;4703133;30;20453;-61
2021/05/17 00:34:22;;;;;;;;;;;21.60;56.50;;;;;;4703623;30;19939;-59
2021/05/17 00:36:49;;;;;;;;;;;21.60;56.60;;;;;;4710850;30;19938;-59
2021/05/17 00:39:17;;;;;;;;;;;21.60;56.30;;;;;;4701629;30;19939;-59
2021/05/17 00:41:44;;;;;;;;;;;21.60;56.30;;;;;;4710836;30;19938;-59
2021/05/17 00:44:11;;;;;;;;;;;21.50;56.30;;;;;;4712132;30;19937;-59
2021/05/17 00:46:38;;;;;;;;;;;21.50;56.80;;;;;;4704293;30;19939;-59
2021/05/17 00:49:05;;;;;;;;;;;21.50;56.20;;;;;;4705695;30;21022;-58
2021/05/17 00:51:32;;;;;;;;;;;21.50;56.20;;;;;;4702355;30;19948;-59
2021/05/17 00:54:00;;;;;;;;;;;21.50;56.30;;;;;;4701426;30;19930;-60
2021/05/17 00:56:27;;;;;;;;;;;21.50;56.30;;;;;;4709608;30;20411;-58
2021/05/17 00:58:53;;;;;;;;;;;21.50;56.20;;;;;;4710056;30;20424;-59
2021/05/17 01:01:20;;;;;;;;;;;21.40;56.20;;;;;;4708458;30;20012;-59
2021/05/17 01:03:47;;;;;;;;;;;21.40;56.20;;;;;;4710751;30;20549;-58
2021/05/17 01:06:16;;;;;;;;;;;21.40;56.20;;;;;;4706539;30;19961;-59
2021/05/17 01:08:47;;;;;;;;;;;21.40;56.10;;;;;;4708063;30;19931;-60
2021/05/17 01:11:16;;;;;;;;;;;21.40;56.10;;;;;;4711039;30;19931;-59
2021/05/17 01:13:43;;;;;;;;;;;21.40;56.10;;;;;;4708653;30;20159;-59
2021/05/17 01:16:10;;;;;;;;;;;21.40;56.10;;;;;;4711701;30;19931;-58
2021/05/17 01:18:38;;;;;;;;;;;21.40;56.10;;;;;;4706784;30;20374;-59
2021/05/17 01:21:05;;;;;;;;;;;21.40;56.10;;;;;;4706766;30;19931;-59
2021/05/17 01:23:46;;;;;;;;;;;21.40;56.10;;;;;;4707427;30;19935;-60
2021/05/17 01:26:14;;;;;;;;;;;21.40;56.00;;;;;;4704057;30;20787;-60
2021/05/17 01:28:41;;;;;;;;;;;21.40;56.00;;;;;;4707505;30;19939;-60
2021/05/17 01:31:09;;;;;;;;;;;21.40;56.00;;;;;;4691408;30;19931;-58
2021/05/17 01:33:37;;;;;;;;;;;21.30;55.90;;;;;;4705622;30;20072;-59
2021/05/17 01:36:04;;;;;;;;;;;21.30;56.00;;;;;;4702756;30;19946;-58
2021/05/17 01:38:32;;;;;;;;;;;21.40;55.90;;;;;;4698942;30;20304;-59
2021/05/17 01:41:00;;;;;;;;;;;21.30;55.90;;;;;;4708082;30;20291;-59
2021/05/17 01:43:27;;;;;;;;;;;21.30;55.80;;;;;;4700333;30;19935;-59
2021/05/17 01:45:54;;;;;;;;;;;21.30;55.90;;;;;;4708884;30;20626;-58
2021/05/17 01:48:25;;;;;;;;;;;21.30;55.80;;;;;;4705728;30;19931;-60
2021/05/17 01:50:52;;;;;;;;;;;21.30;55.80;;;;;;4702437;30;19931;-60
2021/05/17 01:53:18;;;;;;;;;;;21.30;55.70;;;;;;4709055;30;20363;-58
2021/05/17 01:55:45;;;;;;;;;;;21.30;55.70;;;;;;4704155;30;19939;-60
2021/05/17 01:58:19;;;;;;;;;;;21.30;55.70;;;;;;4698439;30;19941;-60
2021/05/17 02:00:46;;;;;;;;;;;21.30;55.80;;;;;;4708730;30;19949;-59
2021/05/17 02:03:13;;;;;;;;;;;21.20;55.70;;;;;;4705292;30;20634;-59
2021/05/17 02:05:39;;;;;;;;;;;21.30;55.70;;;;;;4706762;30;19935;-59
2021/05/17 02:08:10;;;;;;;;;;;21.20;55.60;;;;;;4704893;30;20622;-59
2021/05/17 02:10:38;;;;;;;;;;;21.20;55.60;;;;;;4706492;30;20592;-59
2021/05/17 02:13:06;;;;;;;;;;;21.30;55.60;;;;;;4696736;30;20262;-58
2021/05/17 02:15:34;;;;;;;;;;;21.30;55.50;;;;;;4708842;30;19935;-58
2021/05/17 02:18:02;;;;;;;;;;;21.20;55.50;;;;;;4704921;30;19934;-59
2021/05/17 02:20:29;;;;;;;;;;;21.20;55.50;;;;;;4707586;30;19938;-58
2021/05/17 02:22:57;;;;;;;;;;;21.20;55.50;;;;;;4702661;30;19931;-58
2021/05/17 02:25:23;;;;;;;;;;;21.20;55.50;;;;;;4709044;30;19931;-58
2021/05/17 02:27:50;;;;;;;;;;;21.20;55.40;;;;;;4711720;30;19931;-58
2021/05/17 02:30:17;;;;;;;;;;;21.20;55.40;;;;;;4699101;30;19939;-59
2021/05/17 02:32:44;;;;;;;;;;;21.20;55.50;;;;;;4704089;30;19939;-58
2021/05/17 02:35:11;;;;;;;;;;;21.20;55.40;;;;;;4705583;30;19932;-59
2021/05/17 02:37:38;;;;;;;;;;;21.20;55.40;;;;;;4707321;30;19931;-60
2021/05/17 02:40:05;;;;;;;;;;;21.20;55.40;;;;;;4703891;30;19938;-59
2021/05/17 02:42:33;;;;;;;;;;;21.20;55.40;;;;;;4704964;30;20629;-58
2021/05/17 02:45:02;;;;;;;;;;;21.20;55.30;;;;;;4698424;30;22061;-58
2021/05/17 02:47:36;;;;;;;;;;;21.10;55.20;;;;;;4709813;30;19934;-59
2021/05/17 02:50:04;;;;;;;;;;;21.20;55.30;;;;;;4709894;30;19989;-59
2021/05/17 02:52:31;;;;;;;;;;;21.10;55.20;;;;;;4696517;30;19942;-60
2021/05/17 02:55:01;;;;;;;;;;;21.20;55.30;;;;;;4713075;30;19950;-59
2021/05/17 02:57:53;;;;;;;;;;;21.20;55.30;;;;;;4708704;30;19938;-59
2021/05/17 03:00:21;;;;;;;;;;;21.20;55.30;;;;;;4676368;30;20367;-58
2021/05/17 03:02:48;;;;;;;;;;;21.10;55.30;;;;;;4708972;30;19962;-59
2021/05/17 03:05:15;;;;;;;;;;;21.10;55.20;;;;;;4701419;30;20307;-59
2021/05/17 03:07:44;;;;;;;;;;;21.10;55.20;;;;;;4702046;30;19938;-58
2021/05/17 03:10:10;;;;;;;;;;;21.10;55.20;;;;;;4705631;30;19935;-60
2021/05/17 03:12:37;;;;;;;;;;;21.10;55.20;;;;;;4704028;30;19931;-59
2021/05/17 03:15:05;;;;;;;;;;;21.10;55.20;;;;;;4701739;30;19931;-61
2021/05/17 03:17:32;;;;;;;;;;;21.10;55.20;;;;;;4709228;30;19935;-58
2021/05/17 03:19:59;;;;;;;;;;;21.10;55.10;;;;;;4708498;30;19934;-59
2021/05/17 03:22:29;;;;;;;;;;;21.10;55.10;;;;;;4708292;30;19931;-58
2021/05/17 03:24:57;;;;;;;;;;;21.10;55.10;;;;;;4694876;30;20450;-58
2021/05/17 03:27:25;;;;;;;;;;;21.00;55.00;;;;;;4706821;30;19934;-58
2021/05/17 03:29:52;;;;;;;;;;;21.10;55.00;;;;;;4706511;30;19954;-59
2021/05/17 03:32:19;;;;;;;;;;;21.00;55.00;;;;;;4708106;30;19931;-58
2021/05/17 03:34:45;;;;;;;;;;;21.00;55.00;;;;;;4706781;30;19985;-61
2021/05/17 03:37:12;;;;;;;;;;;21.00;55.00;;;;;;4703514;30;19938;-59
2021/05/17 03:39:42;;;;;;;;;;;21.00;55.00;;;;;;4701472;30;19938;-59
2021/05/17 03:42:09;;;;;;;;;;;21.00;54.90;;;;;;4696657;30;21471;-59
2021/05/17 03:44:35;;;;;;;;;;;21.10;54.90;;;;;;4705277;30;20399;-59
2021/05/17 03:47:02;;;;;;;;;;;21.00;54.90;;;;;;4705080;30;19931;-58
2021/05/17 03:49:30;;;;;;;;;;;21.00;54.90;;;;;;4707630;30;19930;-58
2021/05/17 03:51:57;;;;;;;;;;;21.00;54.90;;;;;;4703565;30;19934;-59
2021/05/17 03:54:23;;;;;;;;;;;21.00;54.80;;;;;;4711648;30;20380;-58
2021/05/17 03:56:50;;;;;;;;;;;21.00;54.80;;;;;;4702470;30;19986;-60
2021/05/17 03:59:17;;;;;;;;;;;21.00;54.80;;;;;;4711560;30;20006;-59
2021/05/17 04:01:45;;;;;;;;;;;21.00;54.70;;;;;;4698871;30;20021;-58
2021/05/17 04:04:13;;;;;;;;;;;21.00;54.70;;;;;;4709376;30;19990;-59
2021/05/17 04:06:48;;;;;;;;;;;21.00;54.70;;;;;;4707626;30;19952;-61
2021/05/17 04:14:46;;;;;;;;;;;21.00;54.50;;;;;;4693165;30;20500;-61
2021/05/17 04:17:12;;;;;;;;;;;21.00;54.50;;;;;;4705858;30;20013;-62
2021/05/17 04:19:39;;;;;;;;;;;21.00;54.60;;;;;;4702392;30;19938;-60
2021/05/17 04:22:06;;;;;;;;;;;21.00;55.10;;;;;;4710701;30;20713;-60
2021/05/17 04:24:33;;;;;;;;;;;20.90;54.40;;;;;;4701597;30;19939;-59
2021/05/17 04:27:00;;;;;;;;;;;21.00;54.50;;;;;;4708672;30;19931;-60
2021/05/17 04:29:28;;;;;;;;;;;20.90;54.40;;;;;;4702148;30;19942;-60
2021/05/17 04:31:55;;;;;;;;;;;20.90;54.40;;;;;;4709755;30;19938;-60
2021/05/17 04:34:21;;;;;;;;;;;20.90;54.40;;;;;;4712816;30;19948;-60
2021/05/17 04:36:48;;;;;;;;;;;20.90;54.40;;;;;;4710044;30;19938;-61
2021/05/17 04:39:15;;;;;;;;;;;20.90;54.40;;;;;;4711115;30;19939;-59
2021/05/17 04:41:41;;;;;;;;;;;20.90;54.40;;;;;;4711701;30;19934;-60
2021/05/17 04:44:08;;;;;;;;;;;20.90;54.40;;;;;;4701060;30;19935;-60
2021/05/17 04:46:35;;;;;;;;;;;20.90;54.30;;;;;;4710863;30;20388;-59
2021/05/17 04:49:02;;;;;;;;;;;20.90;54.30;;;;;;4714034;30;19942;-59
2021/05/17 04:51:29;;;;;;;;;;;20.90;54.30;;;;;;4711622;30;19938;-58
2021/05/17 04:53:55;;;;;;;;;;;20.90;54.20;;;;;;4709860;30;20339;-58
2021/05/17 04:56:22;;;;;;;;;;;20.90;54.20;;;;;;4714231;30;20469;-58
2021/05/17 04:58:50;;;;;;;;;;;20.90;54.30;;;;;;4703403;30;19931;-58
2021/05/17 05:01:17;;;;;;;;;;;20.90;54.30;;;;;;4712792;30;19935;-58
2021/05/17 05:03:43;;;;;;;;;;;20.90;54.20;;;;;;4711306;30;19985;-59
2021/05/17 05:06:15;;;;;;;;;;;20.90;54.30;;;;;;4711321;30;19931;-58
2021/05/17 05:08:41;;;;;;;;;;;20.90;54.40;;;;;;4710668;30;21433;-59
2021/05/17 05:11:08;;;;;;;;;;;20.90;54.40;;;;;;4707392;30;19931;-58
2021/05/17 05:13:35;;;;;;;;;;;20.90;54.50;;;;;;4711271;30;19938;-60
2021/05/17 05:16:01;;;;;;;;;;;20.80;54.40;;;;;;4708663;30;20005;-58
2021/05/17 05:18:28;;;;;;;;;;;20.90;54.40;;;;;;4711800;30;19939;-58
2021/05/17 05:20:55;;;;;;;;;;;20.90;54.30;;;;;;4700145;30;19982;-60
2021/05/17 05:23:22;;;;;;;;;;;20.90;54.40;;;;;;4700417;30;19941;-58
2021/05/17 05:28:24;;;;;;;;;;;20.90;54.50;;;;;;4709687;30;19985;-58
2021/05/17 05:31:12;;;;;;;;;;;20.90;55.30;;;;;;4710827;30;19930;-59
2021/05/17 05:33:39;;;;;;;;;;;20.90;55.20;;;;;;4705736;30;20665;-59
2021/05/17 05:36:06;;;;;;;;;;;20.90;55.20;;;;;;4704630;30;19934;-59
2021/05/17 05:38:32;;;;;;;;;;;20.90;55.10;;;;;;4707941;30;19935;-61
2021/05/17 05:40:59;;;;;;;;;;;20.90;54.80;;;;;;4704405;30;19930;-59
2021/05/17 05:43:26;;;;;;;;;;;20.90;54.70;;;;;;4708572;30;19943;-59
2021/05/17 05:45:52;;;;;;;;;;;20.90;54.50;;;;;;4711815;30;19931;-59
2021/05/17 05:48:19;;;;;;;;;;;20.90;54.40;;;;;;4701767;30;19931;-60
2021/05/17 05:50:46;;;;;;;;;;;21.00;54.40;;;;;;4706690;30;20335;-60
2021/05/17 05:53:13;;;;;;;;;;;21.00;54.20;;;;;;4697444;30;19935;-60
2021/05/17 05:55:40;;;;;;;;;;;21.00;53.80;;;;;;4700400;30;19935;-60
2021/05/17 05:58:07;;;;;;;;;;;21.00;54.00;;;;;;4699332;30;20774;-57
2021/05/17 06:00:33;;;;;;;;;;;21.00;54.80;;;;;;4707549;30;19939;-58
2021/05/17 06:03:00;;;;;;;;;;;21.00;54.60;;;;;;4701994;30;20005;-57
2021/05/17 06:05:27;;;;;;;;;;;21.00;54.70;;;;;;4706298;30;20431;-57
2021/05/17 06:07:57;;;;;;;;;;;21.00;54.50;;;;;;4688704;30;19938;-57
2021/05/17 06:10:23;;;;;;;;;;;21.00;54.30;;;;;;4690214;30;19947;-61
2021/05/17 06:12:50;;;;;;;;;;;21.00;54.30;;;;;;4703193;30;19931;-66
2021/05/17 06:15:20;;;;;;;;;;;21.00;55.30;;;;;;4695137;30;19946;-64
2021/05/17 06:17:47;;;;;;;;;;;21.10;55.50;;;;;;4706127;30;19931;-65
2021/05/17 06:20:14;;;;;;;;;;;21.10;55.50;;;;;;4711054;30;19982;-61
2021/05/17 06:22:41;;;;;;;;;;;21.10;55.80;;;;;;4702294;30;19954;-64
2021/05/17 06:25:10;;;;;;;;;;;21.20;56.40;;;;;;4708616;30;20300;-60
2021/05/17 06:27:38;;;;;;;;;;;21.20;55.20;;;;;;4706258;30;20284;-61
2021/05/17 06:30:06;;;;;;;;;;;21.20;53.90;;;;;;4705059;30;19935;-56
2021/05/17 06:32:36;;;;;;;;;;;21.10;52.60;;;;;;4708595;30;20038;-60
2021/05/17 06:35:04;;;;;;;;;;;21.10;52.00;;;;;;4700598;30;19931;-58
2021/05/17 06:37:31;;;;;;;;;;;21.20;51.90;;;;;;4705213;30;19961;-59
2021/05/17 06:40:02;;;;;;;;;;;21.10;51.80;;;;;;4709571;30;19938;-58
2021/05/17 06:42:31;;;;;;;;;;;21.20;51.40;;;;;;4705701;30;19991;-65
2021/05/17 06:44:58;;;;;;;;;;;21.20;50.80;;;;;;4709571;30;20174;-62
2021/05/17 06:47:25;;;;;;;;;;;21.20;50.70;;;;;;4700287;30;20444;-63
2021/05/17 06:49:51;;;;;;;;;;;21.20;50.70;;;;;;4697140;30;19939;-62
2021/05/17 06:52:23;;;;;;;;;;;21.20;50.40;;;;;;4707016;30;19939;-63
2021/05/17 06:54:57;;;;;;;;;;;21.20;50.40;;;;;;4704472;30;20537;-66
2021/05/17 06:58:28;;;;;;;;;;;21.20;50.30;;;;;;4702151;30;19939;-63
2021/05/17 07:00:28;;;;;;;;;;;21.20;49.90;;;;;;4671149;30;21212;-67
2021/05/17 07:02:55;;;;;;;;;;;21.20;49.90;;;;;;4702003;30;19939;-70
2021/05/17 07:05:22;;;;;;;;;;;21.20;50.40;;;;;;4695863;30;19939;-70
2021/05/17 07:13:10;;;;;;;;;;;21.30;50.60;;;;;;4710530;30;20992;-64
2021/05/17 07:15:37;;;;;;;;;;;21.30;50.40;;;;;;4709537;30;20342;-70
2021/05/17 07:18:03;;;;;;;;;;;21.40;50.70;;;;;;4702740;30;19931;-66
2021/05/17 07:26:04;;;;;;;;;;;21.50;51.80;;;;;;4706280;30;20500;-67
2021/05/17 07:28:31;;;;;;;;;;;21.50;52.00;;;;;;4702833;30;19947;-63
2021/05/17 07:31:03;;;;;;;;;;;21.50;52.00;;;;;;4695876;30;19945;-60
2021/05/17 07:33:30;;;;;;;;;;;21.60;52.10;;;;;;4709149;30;20003;-60
2021/05/17 07:35:57;;;;;;;;;;;21.60;52.20;;;;;;4704802;30;20022;-66
2021/05/17 07:38:28;;;;;;;;;;;21.60;52.40;;;;;;4700839;30;19931;-62
2021/05/17 07:40:56;;;;;;;;;;;21.60;52.10;;;;;;4709984;30;19930;-62
2021/05/17 07:43:22;;;;;;;;;;;21.70;52.30;;;;;;4699186;30;19985;-59
2021/05/17 07:45:49;;;;;;;;;;;21.70;52.10;;;;;;4698376;30;19934;-64
2021/05/17 07:48:16;;;;;;;;;;;21.70;52.20;;;;;;4710795;30;19938;-67
2021/05/17 07:50:43;;;;;;;;;;;21.60;52.20;;;;;;4705114;30;19989;-69
2021/05/17 07:53:11;;;;;;;;;;;21.70;52.20;;;;;;4693653;30;20029;-64
2021/05/17 07:55:39;;;;;;;;;;;21.70;52.10;;;;;;4692173;30;20408;-73
2021/05/17 07:58:06;;;;;;;;;;;21.80;52.00;;;;;;4702867;30;20633;-63
2021/05/17 08:00:33;;;;;;;;;;;21.70;51.60;;;;;;4707196;30;19931;-65
2021/05/17 08:03:00;;;;;;;;;;;21.80;51.90;;;;;;4705438;30;19941;-66
2021/05/17 08:05:28;;;;;;;;;;;21.80;52.10;;;;;;4710471;30;19935;-65
2021/05/17 08:07:55;;;;;;;;;;;21.80;52.40;;;;;;4693453;30;20408;-57
2021/05/17 08:10:28;;;;;;;;;;;21.80;52.20;;;;;;5042309;27;19928;-66
2021/05/17 08:12:55;;;;;;;;;;;21.80;52.80;;;;;;5027433;28;20497;-67
2021/05/17 08:15:22;;;;;;;;;;;21.80;52.90;;;;;;5042455;28;19928;-65
2021/05/17 08:17:49;;;;;;;;;;;21.80;53.20;;;;;;5028746;28;19987;-65
2021/05/17 08:20:15;;;;;;;;;;;21.80;53.30;;;;;;5039658;28;19932;-65
2021/05/17 08:22:42;;;;;;;;;;;21.90;53.80;;;;;;5031711;28;19925;-65
2021/05/17 08:25:09;;;;;;;;;;;21.90;54.20;;;;;;5040194;28;20323;-63
2021/05/17 08:27:36;;;;;;;;;;;21.90;56.90;;;;;;5030493;28;20984;-61
2021/05/17 08:30:05;;;;;;;;;;;21.90;56.30;;;;;;5036068;28;19936;-63
2021/05/17 08:32:31;;;;;;;;;;;21.90;55.10;;;;;;5040363;28;19940;-60
2021/05/17 08:34:58;;;;;;;;;;;22.00;55.00;;;;;;5037655;28;20282;-61
2021/05/17 08:37:25;;;;;;;;;;;22.00;55.20;;;;;;5039846;28;20335;-60
2021/05/17 08:39:51;;;;;;;;;;;22.00;55.20;;;;;;5034010;28;19932;-63
2021/05/17 08:42:29;;;;;;;;;;;22.10;54.40;;;;;;5035208;28;19925;-62
2021/05/17 08:44:56;;;;;;;;;;;22.10;53.90;;;;;;5037071;28;20270;-61
2021/05/17 08:47:23;;;;;;;;;;;22.10;53.20;;;;;;5024459;28;19925;-70
2021/05/17 08:49:49;;;;;;;;;;;22.10;52.80;;;;;;4983314;28;66611;-71
2021/05/17 08:52:16;;;;;;;;;;;22.20;52.60;;;;;;4992986;28;19976;-71
2021/05/17 08:54:43;;;;;;;;;;;22.20;52.20;;;;;;4992737;28;19926;-71
2021/05/17 08:57:10;;;;;;;;;;;22.20;52.20;;;;;;4983526;28;19973;-72
2021/05/17 08:59:36;;;;;;;;;;;22.20;51.90;;;;;;4992972;28;21173;-72
2021/05/17 09:02:03;;;;;;;;;;;22.20;51.90;;;;;;4988814;28;19934;-72
2021/05/17 09:04:30;;;;;;;;;;;22.20;51.70;;;;;;4995038;28;19964;-71
2021/05/17 09:06:58;;;;;;;;;;;22.20;51.70;;;;;;4984989;28;19976;-73
2021/05/17 09:09:28;;;;;;;;;;;22.20;51.50;;;;;;4975983;28;20024;-72
2021/05/17 09:11:57;;;;;;;;;;;22.30;51.60;;;;;;4978497;28;19934;-70
2021/05/17 09:14:25;;;;;;;;;;;22.30;51.50;;;;;;4979897;28;19980;-71
2021/05/17 09:16:59;;;;;;;;;;;22.30;51.40;;;;;;4977208;28;19957;-57
2021/05/17 09:19:32;;;;;;;;;;;22.30;51.50;;;;;;4976220;28;19936;-59
2021/05/17 09:22:15;;;;;;;;;;;22.30;51.00;;;;;;4969003;28;20474;-69
2021/05/17 09:24:52;;;;;;;;;;;22.30;51.20;;;;;;4969187;28;22029;-69
2021/05/17 09:27:20;;;;;;;;;;;22.30;51.10;;;;;;4980075;28;19934;-71
2021/05/17 09:29:48;;;;;;;;;;;22.40;50.70;;;;;;4942404;28;19935;-68
2021/05/17 09:32:17;;;;;;;;;;;22.40;50.80;;;;;;4954397;28;20298;-71
2021/05/17 09:38:20;;;;;;;;;;;22.30;50.40;;;;;;4949793;28;20323;-71
2021/05/17 09:40:57;;;;;;;;;;;22.30;51.60;;;;;;4965919;28;19930;-73
2021/05/17 09:43:25;;;;;;;;;;;22.30;50.60;;;;;;4963978;28;20334;-67
2021/05/17 09:45:51;;;;;;;;;;;22.30;50.70;;;;;;4963076;28;20259;-69
2021/05/17 09:48:19;;;;;;;;;;;22.30;50.50;;;;;;4964929;28;19945;-68
2021/05/17 09:50:56;;;;;;;;;;;22.40;50.50;;;;;;4966445;28;19954;-69
2021/05/17 09:53:23;;;;;;;;;;;22.40;50.60;;;;;;4966988;28;20386;-71
2021/05/17 09:55:50;;;;;;;;;;;22.40;50.60;;;;;;4961935;28;19926;-69
2021/05/17 09:58:26;;;;;;;;;;;22.40;50.60;;;;;;4962215;28;19926;-75
2021/05/17 10:01:08;;;;;;;;;;;22.40;50.50;;;;;;4967080;28;20377;-72
2021/05/17 10:03:39;;;;;;;;;;;22.40;50.50;;;;;;4966833;28;19930;-75
2021/05/17 10:06:13;;;;;;;;;;;22.40;50.50;;;;;;4964395;28;19930;-63
2021/05/17 10:08:39;;;;;;;;;;;22.40;51.00;;;;;;4965186;28;20489;-62
2021/05/17 10:11:06;;;;;;;;;;;22.30;50.90;;;;;;4959428;28;19961;-63
2021/05/17 10:13:35;;;;;;;;;;;22.30;51.30;;;;;;4968634;28;20329;-64
2021/05/17 10:16:07;;;;;;;1.73;1.13;;;22.30;51.90;;;;;;4967278;28;19934;-53
2021/05/17 10:18:35;;;;;;;3.58;1.33;;;22.40;52.70;;;;;;4953770;28;20420;-60
2021/05/17 10:21:04;;;;;;;2.93;1.33;;;22.60;51.60;;;;;;4961053;28;58955;-60
2021/05/17 10:23:32;;;;;;;2.00;1.10;;;22.70;51.40;;;;;;4965872;28;20241;-61
2021/05/17 10:26:07;;;;;;;1.97;1.00;;;22.70;51.60;;;;;;4972461;28;20964;-59
2021/05/17 10:28:35;;;;;;;2.50;1.07;;;22.60;51.40;;;;;;4969888;28;20739;-58
2021/05/17 10:31:32;;;;;;;2.00;1.40;;;22.70;51.30;;;;;;4970592;28;20220;-57
2021/05/17 10:34:07;;;;;;;3.90;1.10;;;22.60;51.30;;;;;;4932298;28;20244;-59
2021/05/17 10:37:00;;;;;;;4.43;1.40;;;22.60;51.40;;;;;;4966316;28;20224;-61
2021/05/17 10:39:30;;;;;;;3.40;1.40;;;22.60;51.50;;;;;;4956702;28;20217;-60
2021/05/17 10:48:32;;;;;;;1.73;1.00;;;22.60;51.40;;;;;;4944155;28;20790;-60
2021/05/17 10:51:18;;;;;;;3.80;1.27;;;22.60;51.20;;;;;;4961090;28;20241;-60
2021/05/17 10:53:54;;;;;;;1.90;0.80;;;22.70;51.30;;;;;;4955595;28;20822;-57
2021/05/17 10:56:46;;;;;;;2.40;1.07;;;22.60;51.00;;;;;;4972853;28;20240;-63
2021/05/17 11:02:12;;;;;;;5.50;1.20;;;22.70;51.00;;;;;;4961665;28;20217;-65
2021/05/17 11:04:49;;;;;;;1.30;0.90;;;22.70;51.30;;;;;;4959558;28;20607;-60
2021/05/17 11:07:55;;;;;;;2.57;1.10;;;22.70;51.40;;;;;;4962860;28;20963;-61
2021/05/17 11:10:41;;;;;;;2.80;0.80;;;22.70;51.50;;;;;;4953954;28;20252;-65
2021/05/17 11:13:11;;;;;;;1.27;1.00;;;22.70;51.60;;;;;;4964037;28;21090;-65
2021/05/17 11:15:58;;;;;;;2.07;1.03;;;22.80;51.70;;;;;;4968932;28;20341;-66
2021/05/17 11:18:32;;;;;;;1.37;0.70;;;22.80;51.60;;;;;;4954176;28;21225;-63
2021/05/17 11:21:05;;;;;;;2.70;1.10;;;22.80;51.50;;;;;;4964356;28;20248;-62
2021/05/17 11:23:32;;;;;;;1.50;0.70;;;22.90;51.60;;;;;;4966055;28;20236;-61
2021/05/17 11:26:09;;;;;;;1.50;1.07;;;22.80;51.50;;;;;;4968818;28;20351;-62
2021/05/17 11:28:36;;;;;;;3.43;1.13;;;22.90;51.50;;;;;;4967372;28;20233;-63
2021/05/17 11:31:12;;;;;;;4.50;1.60;;;22.90;51.50;;;;;;4958189;28;20659;-66
2021/05/17 11:33:59;;;;;;;4.47;1.27;;;22.90;51.50;;;;;;4960647;28;20613;-68
2021/05/17 11:36:35;;;;;;;2.67;1.33;;;22.90;51.80;;;;;;4953634;28;20660;-65
2021/05/17 11:39:19;;;;;;;2.73;1.73;;;23.00;52.00;;;;;;4961687;28;20617;-65
2021/05/17 11:41:55;;;;;;;2.73;1.30;;;23.00;52.40;;;;;;4957840;28;20955;-67
2021/05/17 11:44:33;;;;;;;4.23;1.20;;;23.00;52.20;;;;;;4964005;28;20275;-66
2021/05/17 11:47:01;;;;;;;3.73;1.60;;;23.10;51.90;;;;;;4958587;28;20244;-59
2021/05/17 11:49:31;;;;;;;2.93;1.77;;;23.10;51.90;;;;;;4958946;28;20585;-61
2021/05/17 11:52:04;;;;;;;2.03;1.40;;;23.10;51.70;;;;;;4961469;28;20225;-58
2021/05/17 11:55:12;;;;;;;4.23;1.83;;;23.10;51.90;;;;;;4965221;28;20231;-61
2021/05/17 11:57:41;;;;;;;2.70;1.40;;;23.10;51.70;;;;;;4960697;28;21307;-63
2021/05/17 12:00:16;;;;;;;2.73;1.50;;;23.10;52.10;;;;;;4954429;28;20786;-61
2021/05/17 12:02:44;;;;;;;4.13;1.67;;;23.10;52.10;;;;;;4960853;28;21366;-59
2021/05/17 12:05:11;;;;;;;5.20;1.77;;;23.10;51.80;;;;;;4964984;28;20704;-59
2021/05/17 12:07:43;;;;;;;4.77;2.20;;;23.10;53.90;;;;;;4961551;28;20303;-60
2021/05/17 12:10:10;;;;;;;4.10;1.70;;;23.00;54.90;;;;;;4973242;28;20761;-61
2021/05/17 12:12:37;;;;;;;4.07;1.50;;;23.00;53.40;;;;;;4963798;28;20236;-63
2021/05/17 12:15:05;;;;;;;2.87;1.73;;;23.00;53.40;;;;;;4963628;28;20232;-60
2021/05/17 12:17:34;;;;;;;2.80;1.60;;;23.00;53.40;;;;;;4961915;28;20650;-60
2021/05/17 12:20:10;;;;;;;1.80;1.30;;;23.00;53.30;;;;;;4964317;28;20315;-60
2021/05/17 12:22:47;;;;;;;3.83;1.57;;;23.00;53.40;;;;;;4967090;28;20265;-58
2021/05/17 12:25:16;;;;;;;1.90;1.53;;;23.00;52.90;;;;;;4966895;28;20236;-57
2021/05/17 12:27:45;;;;;;;2.53;1.70;;;23.10;53.20;;;;;;4961961;28;20229;-56
2021/05/17 12:30:22;;;;;;;2.17;1.37;;;23.10;53.20;;;;;;4968232;28;20251;-59
2021/05/17 12:32:53;;;;;;;4.40;1.53;;;23.00;52.90;;;;;;4966633;28;20224;-55
2021/05/17 12:35:36;;;;;;;2.87;1.37;;;23.10;53.00;;;;;;4966841;28;20248;-55
2021/05/17 12:38:05;;;;;;;3.97;1.20;;;23.10;52.90;;;;;;4958833;28;20723;-56
2021/05/17 12:40:40;;;;;;;2.80;2.50;;;23.10;53.10;;;;;;4967214;28;20233;-55
2021/05/17 12:43:16;;;;;;;3.23;2.03;;;23.10;53.80;;;;;;4967201;28;20953;-56
2021/05/17 12:46:00;;;;;;;4.27;1.83;;;23.20;53.00;;;;;;4958007;28;20239;-59
2021/05/17 12:48:39;;;;;;;2.87;1.80;;;23.20;54.00;;;;;;4959527;28;20220;-59
2021/05/17 12:51:16;;;;;;;2.33;1.40;;;23.20;53.10;;;;;;4958642;28;20233;-58
2021/05/17 12:53:43;;;;;;;2.60;1.50;;;23.20;52.70;;;;;;4958272;28;20600;-57
2021/05/17 12:56:09;;;;;;;3.93;2.03;;;23.20;52.80;;;;;;4964710;28;20231;-58
2021/05/17 12:58:41;;;;;;;3.97;1.60;;;23.20;53.20;;;;;;4963622;28;20240;-59
2021/05/17 13:01:20;;;;;;;4.27;1.90;;;23.20;52.60;;;;;;4964246;28;20231;-57
2021/05/17 13:03:50;;;;;;;3.63;2.10;;;23.20;52.60;;;;;;4953980;28;21783;-58
2021/05/17 13:06:24;;;;;;;4.73;2.03;;;23.20;53.00;;;;;;4964726;28;20690;-59
2021/05/17 13:09:07;;;;;;;4.40;2.57;;;23.20;52.60;;;;;;4966378;28;20279;-63
2021/05/17 13:11:43;;;;;;;3.87;2.13;;;23.20;52.50;;;;;;4963722;28;20232;-63
2021/05/17 13:14:10;;;;;;;3.30;2.20;;;23.20;52.40;;;;;;4963689;28;20775;-63
2021/05/17 13:16:41;;;;;;;5.60;1.70;;;23.10;52.40;;;;;;4956656;28;20250;-57
2021/05/17 13:33:06;;;;;;;3.03;1.60;;;23.00;51.90;;;;;;4966779;28;20579;-55
2021/05/17 13:35:38;;;;;;;1.80;1.43;;;23.00;52.00;;;;;;4968934;28;20236;-63
2021/05/17 13:38:04;;;;;;;4.07;1.90;;;23.00;51.90;;;;;;4963156;28;20308;-59
2021/05/17 13:40:31;;;;;;;2.70;1.70;;;23.00;52.30;;;;;;4965187;28;20236;-60
2021/05/17 13:42:58;;;;;;;3.80;1.83;;;23.00;51.70;;;;;;4961498;28;20962;-60
2021/05/17 13:45:25;;;;;;;4.17;1.90;;;23.00;52.40;;;;;;4962579;28;20229;-58
2021/05/17 13:47:51;;;;;;;3.60;1.53;;;22.90;52.20;;;;;;4963375;28;20229;-58
2021/05/17 13:50:19;;;;;;;2.77;1.73;;;22.90;52.70;;;;;;4968339;28;20240;-56
2021/05/17 13:52:45;;;;;;;4.23;2.13;;;22.90;52.10;;;;;;4964326;28;20229;-58
2021/05/17 13:55:27;;;;;;;4.90;2.30;;;22.70;52.10;;;;;;4966486;28;20232;-62
2021/05/17 13:57:59;;;;;;;4.03;2.17;;;22.50;53.10;;;;;;4962316;28;20226;-60
2021/05/17 14:00:27;;;;;;;2.70;1.70;;;22.60;53.60;;;;;;4968156;28;20300;-62
2021/05/17 14:02:54;;;;;;;2.47;1.63;;;22.70;53.40;;;;;;4961360;28;20235;-63
2021/05/17 14:05:22;;;;;;;2.33;1.30;;;22.80;53.40;;;;;;4970902;28;20249;-62
2021/05/17 14:07:48;;;;;;;5.30;1.50;;;22.90;53.30;;;;;;4958181;28;20251;-61
2021/05/17 14:10:15;;;;;;;4.97;1.50;;;23.00;53.50;;;;;;4967063;28;20677;-59
2021/05/17 14:12:42;;;;;;;3.60;1.20;;;23.00;53.30;;;;;;4962826;28;20221;-60
2021/05/17 14:15:12;;;;;;;2.30;1.03;;;23.10;53.60;;;;;;4963602;28;20223;-61
2021/05/17 14:17:40;;;;;;;3.40;1.27;;;23.20;53.60;;;;;;4960928;28;20220;-60
2021/05/17 14:20:10;;;;;;;2.30;0.90;;;23.20;53.10;;;;;;4964946;28;21434;-61
2021/05/17 14:22:38;;;;;;;2.67;1.13;;;23.30;53.70;;;;;;4963829;28;20420;-61
2021/05/17 14:25:07;;;;;;;3.03;1.10;;;23.30;53.30;;;;;;4967712;28;20235;-62
2021/05/17 14:27:34;;;;;;;4.77;0.97;;;23.40;53.00;;;;;;4963115;28;20239;-63
2021/05/17 14:30:02;;;;;;;2.60;1.30;;;23.40;52.60;;;;;;4964402;28;20237;-65
2021/05/17 14:32:33;;;;;;;4.60;1.37;;;23.40;52.90;;;;;;4964183;28;20216;-65
2021/05/17 14:35:00;;;;;;;6.63;1.27;;;23.40;52.50;;;;;;4965781;28;20232;-76
2021/05/17 14:37:29;;;;;;;2.10;1.07;;;23.50;52.90;;;;;;4961630;28;20697;-69
2021/05/17 14:39:57;;;;;;;3.07;1.13;;;23.50;52.70;;;;;;4959009;28;20243;-65
2021/05/17 14:42:24;;;;;;;3.47;1.20;;;23.50;52.70;;;;;;4960723;28;20231;-61
2021/05/17 14:44:56;;;;;;;1.20;0.80;;;23.50;52.20;;;;;;4964447;28;20228;-62
2021/05/17 14:47:23;;;;;;;2.20;1.07;;;23.50;52.60;;;;;;4963932;28;20236;-65